Time;durP1;ratioP1;P1;durP2;ratioP2;P2;SDS_P1;SDS_P2;PMS_P1;PMS_P2;Temp;Humidity;BMP_temperature;BMP_pressure;BME280_temperature;BME280_humidity;BME280_pressure;Samples;Min_cycle;Max_cycle;Signal;HPM_P1;HPM_P2
2022/06/06 00:01:17;;;;;;;1.30;1.30;;;22.00;69.40;;;;;;5089032;27;43990;-69
2022/06/06 00:03:45;;;;;;;1.37;1.37;;;21.90;69.60;;;;;;5107001;27;43953;-69
2022/06/06 00:06:15;;;;;;;1.30;1.30;;;21.90;69.80;;;;;;5107129;27;43937;-68
2022/06/06 00:08:43;;;;;;;1.30;1.30;;;21.80;69.80;;;;;;5107012;27;44113;-69
2022/06/06 00:11:14;;;;;;;1.40;1.40;;;21.80;70.10;;;;;;5088910;27;44075;-69
2022/06/06 00:13:44;;;;;;;1.30;1.30;;;21.80;70.10;;;;;;5107068;27;43599;-69
2022/06/06 00:16:13;;;;;;;1.50;1.40;;;21.70;70.00;;;;;;5107041;27;43963;-69
2022/06/06 00:18:44;;;;;;;1.23;1.23;;;21.70;70.10;;;;;;5088493;27;44059;-68
2022/06/06 00:21:12;;;;;;;1.30;1.30;;;21.70;70.20;;;;;;5107346;27;43958;-68
2022/06/06 00:23:40;;;;;;;1.20;1.20;;;21.70;70.30;;;;;;5106535;27;44116;-68
2022/06/06 00:26:10;;;;;;;1.47;1.47;;;21.70;70.30;;;;;;5106928;27;43923;-69
2022/06/06 00:28:39;;;;;;;1.50;1.50;;;21.70;70.30;;;;;;5106810;27;43927;-68
2022/06/06 00:36:36;;;;;;;1.40;1.40;;;21.70;70.90;;;;;;5106673;27;43898;-68
2022/06/06 00:39:05;;;;;;;1.40;1.40;;;21.90;70.60;;;;;;5088129;27;43943;-68
2022/06/06 00:41:37;;;;;;;1.20;1.20;;;22.00;70.00;;;;;;5107403;27;43813;-68
2022/06/06 00:44:08;;;;;;;1.07;1.07;;;22.20;69.50;;;;;;5106696;27;43904;-69
2022/06/06 00:46:40;;;;;;;1.30;1.30;;;22.40;68.90;;;;;;5106703;27;43955;-68
2022/06/06 00:49:09;;;;;;;1.53;1.53;;;22.60;68.30;;;;;;5106213;27;44011;-68
2022/06/06 00:51:39;;;;;;;1.30;1.30;;;22.70;67.90;;;;;;5106971;27;43481;-68
2022/06/06 00:54:07;;;;;;;1.50;1.50;;;22.90;67.50;;;;;;5106593;27;45157;-69
2022/06/06 00:56:37;;;;;;;1.30;1.30;;;23.00;67.20;;;;;;5106150;27;43806;-69
2022/06/06 00:59:07;;;;;;;1.30;1.30;;;23.10;66.70;;;;;;5106360;27;44014;-68
2022/06/06 01:01:43;;;;;;;1.30;1.30;;;23.20;66.40;;;;;;5088695;27;43977;-69
2022/06/06 01:04:12;;;;;;;1.23;1.23;;;23.20;66.30;;;;;;5106515;27;44120;-68
2022/06/06 01:06:41;;;;;;;1.50;1.50;;;23.00;66.40;;;;;;5106436;27;44114;-68
2022/06/06 01:09:11;;;;;;;1.20;1.20;;;22.90;67.00;;;;;;5106315;27;43892;-68
2022/06/06 01:11:41;;;;;;;1.20;1.20;;;22.70;67.50;;;;;;5106872;27;43807;-68
2022/06/06 01:14:10;;;;;;;1.40;1.40;;;22.50;67.90;;;;;;5068460;28;44071;-70
2022/06/06 01:16:45;;;;;;;1.50;1.50;;;22.30;68.20;;;;;;5086610;27;44047;-68
2022/06/06 01:19:30;;;;;;;1.50;1.50;;;22.20;68.70;;;;;;5105032;27;43414;-68
2022/06/06 01:22:29;;;;;;;1.30;1.30;;;22.00;68.90;;;;;;5106903;27;44061;-69
2022/06/06 01:25:43;;;;;;;1.40;1.40;;;22.00;69.30;;;;;;5088193;27;44026;-69
2022/06/06 01:28:47;;;;;;;1.50;1.50;;;21.90;69.60;;;;;;5007066;28;43525;-69
2022/06/06 01:31:16;;;;;;;1.40;1.40;;;21.80;69.90;;;;;;4965492;28;44173;-68
2022/06/06 01:33:49;;;;;;;1.30;1.30;;;21.80;70.10;;;;;;5045545;28;43457;-68
2022/06/06 01:36:17;;;;;;;1.50;1.50;;;21.70;70.00;;;;;;5089918;27;44954;-68
2022/06/06 01:38:45;;;;;;;1.30;1.30;;;21.70;70.00;;;;;;5089744;27;43869;-68
2022/06/06 01:41:14;;;;;;;1.40;1.40;;;21.70;70.20;;;;;;5089609;27;43941;-68
2022/06/06 01:43:47;;;;;;;1.60;1.60;;;21.70;70.30;;;;;;5089880;27;44082;-68
2022/06/06 01:46:18;;;;;;;1.60;1.60;;;21.60;70.20;;;;;;5109197;27;44054;-69
2022/06/06 01:48:46;;;;;;;1.90;1.90;;;21.60;70.30;;;;;;5109054;27;44047;-68
2022/06/06 01:51:15;;;;;;;1.20;1.20;;;21.60;70.30;;;;;;5089518;27;43963;-68
2022/06/06 01:53:45;;;;;;;1.40;1.40;;;21.60;70.30;;;;;;5071529;27;44018;-68
2022/06/06 01:56:15;;;;;;;1.40;1.40;;;21.60;70.40;;;;;;5089159;27;44004;-69
2022/06/06 01:58:44;;;;;;;1.60;1.60;;;21.60;70.40;;;;;;5089322;27;43991;-68
2022/06/06 02:01:14;;;;;;;1.60;1.50;;;21.60;70.50;;;;;;5089307;27;43911;-68
2022/06/06 02:03:42;;;;;;;1.60;1.60;;;21.60;70.90;;;;;;5089605;27;44018;-68
2022/06/06 02:06:11;;;;;;;1.43;1.43;;;21.80;70.80;;;;;;5089477;27;44038;-69
2022/06/06 02:08:39;;;;;;;1.47;1.47;;;21.90;70.20;;;;;;5070568;27;44492;-69
2022/06/06 02:11:07;;;;;;;1.87;1.87;;;22.10;69.70;;;;;;5072139;27;44016;-68
2022/06/06 02:13:35;;;;;;;1.40;1.40;;;22.30;69.20;;;;;;5109492;27;43351;-69
2022/06/06 02:16:03;;;;;;;1.40;1.40;;;22.50;68.70;;;;;;5108870;27;44810;-68
2022/06/06 02:18:33;;;;;;;1.47;1.47;;;22.60;68.10;;;;;;5109166;27;43883;-68
2022/06/06 02:21:02;;;;;;;1.57;1.57;;;22.70;67.70;;;;;;5089938;27;43882;-68
2022/06/06 02:23:30;;;;;;;1.50;1.50;;;22.90;67.30;;;;;;5109361;27;44015;-68
2022/06/06 02:25:58;;;;;;;1.30;1.30;;;23.00;66.90;;;;;;5108722;27;45135;-69
2022/06/06 02:28:26;;;;;;;1.47;1.47;;;23.10;66.50;;;;;;5108672;27;43770;-68
2022/06/06 02:30:54;;;;;;;1.40;1.40;;;23.10;66.30;;;;;;5108640;27;43955;-69
2022/06/06 02:33:22;;;;;;;1.70;1.70;;;23.00;66.60;;;;;;5090343;27;44103;-68
2022/06/06 02:35:51;;;;;;;1.70;1.70;;;22.80;67.00;;;;;;5107272;27;43959;-68
2022/06/06 02:38:19;;;;;;;1.50;1.50;;;22.60;67.40;;;;;;5108373;27;43797;-69
2022/06/06 02:40:47;;;;;;;1.60;1.60;;;22.40;67.80;;;;;;5089658;27;44052;-68
2022/06/06 02:43:15;;;;;;;1.50;1.50;;;22.20;68.10;;;;;;5109048;27;43894;-70
2022/06/06 02:45:46;;;;;;;1.60;1.60;;;22.10;68.60;;;;;;5098884;27;43673;-68
2022/06/06 02:48:15;;;;;;;1.57;1.57;;;22.00;69.00;;;;;;5088372;27;44082;-68
2022/06/06 02:50:43;;;;;;;1.50;1.50;;;21.90;69.30;;;;;;5088647;27;43944;-69
2022/06/06 02:53:12;;;;;;;1.50;1.50;;;21.90;69.60;;;;;;5077452;27;43948;-70
2022/06/06 02:55:40;;;;;;;1.67;1.67;;;21.80;69.70;;;;;;5070160;27;45919;-68
2022/06/06 02:58:08;;;;;;;1.50;1.50;;;21.80;69.90;;;;;;5088554;27;43897;-69
2022/06/06 03:00:42;;;;;;;1.70;1.70;;;21.70;70.00;;;;;;5087866;27;43358;-69
2022/06/06 03:03:11;;;;;;;1.57;1.57;;;21.70;70.00;;;;;;5088936;27;44078;-70
2022/06/06 03:05:47;;;;;;;1.53;1.53;;;21.60;70.10;;;;;;5088335;27;44040;-68
2022/06/06 03:08:28;;;;;;;1.90;1.80;;;21.60;70.20;;;;;;5069628;28;46170;-68
2022/06/06 03:11:03;;;;;;;1.70;1.70;;;21.60;70.30;;;;;;5101811;27;43906;-69
2022/06/06 03:13:39;;;;;;;1.57;1.47;;;21.60;70.40;;;;;;5108763;27;44031;-69
2022/06/06 03:21:57;;;;;;;1.70;1.70;;;21.60;70.40;;;;;;5073602;27;43394;-69
2022/06/06 03:24:32;;;;;;;1.80;1.80;;;21.60;71.10;;;;;;5088621;27;44003;-68
2022/06/06 03:27:13;;;;;;;1.57;1.57;;;21.70;70.90;;;;;;5088315;27;44004;-69
2022/06/06 03:29:52;;;;;;;1.37;1.37;;;21.90;70.60;;;;;;5075276;27;44564;-68
2022/06/06 03:32:23;;;;;;;1.60;1.60;;;22.00;69.90;;;;;;5087398;27;43900;-68
2022/06/06 03:34:55;;;;;;;1.60;1.60;;;22.20;69.30;;;;;;5108164;27;43762;-68
2022/06/06 03:37:25;;;;;;;1.57;1.57;;;22.40;68.80;;;;;;5107661;27;43904;-69
2022/06/06 03:39:57;;;;;;;1.60;1.60;;;22.60;68.30;;;;;;5107560;27;44011;-68
2022/06/06 03:42:30;;;;;;;1.50;1.50;;;22.70;67.70;;;;;;5098903;27;43958;-68
2022/06/06 03:45:03;;;;;;;1.50;1.50;;;22.90;67.30;;;;;;5088462;27;44495;-69
2022/06/06 03:47:37;;;;;;;1.70;1.70;;;23.00;67.00;;;;;;5087502;27;44033;-69
2022/06/06 03:50:09;;;;;;;1.70;1.70;;;23.00;66.60;;;;;;5092439;27;43884;-69
2022/06/06 03:52:46;;;;;;;1.50;1.50;;;22.90;66.80;;;;;;5070670;28;43960;-68
2022/06/06 03:55:21;;;;;;;1.60;1.60;;;22.70;67.30;;;;;;5088073;28;43384;-69
2022/06/06 03:57:49;;;;;;;1.83;1.83;;;22.50;67.80;;;;;;5107216;27;43963;-69
2022/06/06 04:00:17;;;;;;;1.40;1.40;;;22.30;68.00;;;;;;5107188;27;43922;-69
2022/06/06 04:02:45;;;;;;;1.50;1.50;;;22.20;68.50;;;;;;5107371;27;43844;-69
2022/06/06 04:05:15;;;;;;;1.37;1.37;;;22.00;68.70;;;;;;5100319;27;43391;-68
2022/06/06 04:07:43;;;;;;;1.50;1.50;;;21.90;69.10;;;;;;5087467;27;43937;-69
2022/06/06 04:10:12;;;;;;;1.70;1.70;;;21.80;69.40;;;;;;5087612;27;43374;-69
2022/06/06 04:13:06;;;;;;;1.60;1.60;;;21.80;69.70;;;;;;5087686;27;43860;-68
2022/06/06 04:15:42;;;;;;;1.50;1.50;;;21.70;70.00;;;;;;5087973;27;43948;-69
2022/06/06 04:18:13;;;;;;;1.43;1.43;;;21.60;69.90;;;;;;5087559;27;44406;-69
2022/06/06 04:20:50;;;;;;;1.70;1.70;;;21.60;70.10;;;;;;5088262;27;45117;-69
2022/06/06 04:23:28;;;;;;;1.80;1.80;;;21.60;70.20;;;;;;5107298;27;43851;-68
2022/06/06 04:26:03;;;;;;;1.80;1.80;;;21.50;70.20;;;;;;5107440;27;44069;-69
2022/06/06 04:28:33;;;;;;;1.80;1.80;;;21.50;70.30;;;;;;5107160;27;44011;-68
2022/06/06 04:31:09;;;;;;;1.80;1.70;;;21.50;70.40;;;;;;5097022;27;43985;-68
2022/06/06 04:33:42;;;;;;;1.60;1.60;;;21.50;70.40;;;;;;5087427;27;43991;-68
2022/06/06 04:36:12;;;;;;;1.60;1.60;;;21.50;70.40;;;;;;5087732;27;43983;-69
2022/06/06 04:38:45;;;;;;;1.87;1.87;;;21.50;70.50;;;;;;5068638;28;45741;-68
2022/06/06 04:41:16;;;;;;;1.83;1.83;;;21.50;71.00;;;;;;5087142;27;43975;-69
2022/06/06 04:43:49;;;;;;;2.00;2.00;;;21.60;71.10;;;;;;5100609;27;43761;-68
2022/06/06 04:46:20;;;;;;;1.87;1.87;;;21.70;70.60;;;;;;5087210;28;43882;-69
2022/06/06 04:48:48;;;;;;;1.70;1.70;;;21.90;70.20;;;;;;5086474;28;44163;-70
2022/06/06 04:51:18;;;;;;;1.80;1.80;;;22.00;69.60;;;;;;5079596;28;44545;-69
2022/06/06 04:53:47;;;;;;;1.60;1.60;;;22.20;69.10;;;;;;5068541;28;43919;-68
2022/06/06 04:56:15;;;;;;;1.60;1.60;;;22.40;68.60;;;;;;5068364;28;43975;-68
2022/06/06 04:58:43;;;;;;;1.67;1.67;;;22.60;68.00;;;;;;5086578;27;43997;-70
2022/06/06 05:01:13;;;;;;;1.67;1.67;;;22.70;67.50;;;;;;5090368;27;44125;-69
2022/06/06 05:03:41;;;;;;;1.60;1.60;;;22.80;67.10;;;;;;5092753;27;44006;-69
2022/06/06 05:06:20;;;;;;;1.70;1.70;;;22.90;66.80;;;;;;5108896;27;43877;-70
2022/06/06 05:09:09;;;;;;;1.80;1.80;;;23.00;66.60;;;;;;5071917;28;45829;-68
2022/06/06 05:11:42;;;;;;;1.60;1.60;;;23.00;66.20;;;;;;5090003;28;43325;-69
2022/06/06 05:14:20;;;;;;;1.50;1.50;;;22.90;66.60;;;;;;5090686;27;43425;-69
2022/06/06 05:17:05;;;;;;;1.67;1.67;;;22.70;67.20;;;;;;5072298;27;44063;-69
2022/06/06 05:19:44;;;;;;;1.70;1.70;;;22.50;67.60;;;;;;5090487;27;43948;-69
2022/06/06 05:22:28;;;;;;;1.80;1.80;;;22.30;68.00;;;;;;5109169;27;44149;-69
2022/06/06 05:25:06;;;;;;;1.40;1.40;;;22.10;68.30;;;;;;5091396;27;43932;-69
2022/06/06 05:27:44;;;;;;;1.67;1.67;;;22.00;68.80;;;;;;5110545;27;43955;-70
2022/06/06 05:30:16;;;;;;;1.80;1.80;;;21.90;69.20;;;;;;5092148;27;43803;-68
2022/06/06 05:32:54;;;;;;;1.70;1.70;;;21.80;69.40;;;;;;5089945;27;43971;-69
2022/06/06 05:35:30;;;;;;;1.73;1.73;;;21.80;69.70;;;;;;5090240;27;43796;-68
2022/06/06 05:38:03;;;;;;;1.60;1.60;;;21.70;69.80;;;;;;5071925;27;43862;-68
2022/06/06 05:40:35;;;;;;;1.73;1.73;;;21.70;70.00;;;;;;5071602;27;45437;-69
2022/06/06 05:43:21;;;;;;;1.60;1.60;;;21.60;69.90;;;;;;5071106;27;44482;-68
2022/06/06 05:45:54;;;;;;;1.77;1.77;;;21.60;70.10;;;;;;5071487;28;43952;-69
2022/06/06 05:48:34;;;;;;;1.53;1.53;;;21.60;70.10;;;;;;5090248;27;44050;-68
2022/06/06 05:51:10;;;;;;;1.80;1.80;;;21.60;70.20;;;;;;5084579;27;44703;-68
2022/06/06 05:53:50;;;;;;;1.80;1.80;;;21.50;70.30;;;;;;5090808;27;43984;-68
2022/06/06 05:56:30;;;;;;;1.70;1.70;;;21.50;70.30;;;;;;5109382;27;43864;-69
2022/06/06 05:59:10;;;;;;;1.97;1.97;;;21.50;70.30;;;;;;5092761;27;43912;-68
2022/06/06 06:01:45;;;;;;;1.87;1.87;;;21.50;70.30;;;;;;5071023;28;46775;-69
2022/06/06 06:04:41;;;;;;;2.10;2.10;;;21.50;70.30;;;;;;5089356;27;43968;-68
2022/06/06 06:07:20;;;;;;;1.80;1.80;;;21.50;70.90;;;;;;5090170;27;43932;-68
2022/06/06 06:10:01;;;;;;;1.73;1.73;;;21.70;70.60;;;;;;5071637;27;43967;-68
2022/06/06 06:12:40;;;;;;;1.73;1.73;;;21.90;70.20;;;;;;5070795;27;45503;-68
2022/06/06 06:15:13;;;;;;;1.80;1.80;;;22.10;69.80;;;;;;5089662;27;43880;-70
2022/06/06 06:17:41;;;;;;;1.63;1.63;;;22.20;69.00;;;;;;5089551;27;43968;-68
2022/06/06 06:20:16;;;;;;;1.70;1.70;;;22.40;68.50;;;;;;5099467;27;43400;-70
2022/06/06 06:22:46;;;;;;;1.80;1.80;;;22.60;68.00;;;;;;5098574;27;43891;-68
2022/06/06 06:25:14;;;;;;;1.60;1.60;;;22.70;67.60;;;;;;5106485;27;43946;-68
2022/06/06 06:27:42;;;;;;;1.80;1.80;;;22.80;67.30;;;;;;5109056;27;43892;-68
2022/06/06 06:30:11;;;;;;;1.87;1.87;;;22.80;66.70;;;;;;5109543;27;43841;-69
2022/06/06 06:32:50;;;;;;;1.70;1.70;;;22.80;66.70;;;;;;5089917;27;45773;-67
2022/06/06 06:35:21;;;;;;;1.90;1.90;;;22.70;67.00;;;;;;5108921;27;44092;-69
2022/06/06 06:38:05;;;;;;;1.60;1.60;;;22.60;67.60;;;;;;5108985;27;43915;-68
2022/06/06 06:40:49;;;;;;;1.70;1.70;;;22.30;67.80;;;;;;5089539;28;43446;-69
2022/06/06 06:43:26;;;;;;;1.70;1.70;;;22.20;68.30;;;;;;5086964;28;44053;-68
2022/06/06 06:45:57;;;;;;;2.00;1.83;;;22.10;68.70;;;;;;5088499;28;44057;-68
2022/06/06 06:48:29;;;;;;;1.70;1.70;;;21.90;69.00;;;;;;5088568;28;43970;-68
2022/06/06 06:51:00;;;;;;;1.90;1.90;;;21.90;69.30;;;;;;5089066;28;44018;-68
2022/06/06 06:53:44;;;;;;;1.77;1.77;;;21.80;69.50;;;;;;5088582;27;43950;-68
2022/06/06 06:56:18;;;;;;;1.87;1.87;;;21.70;69.60;;;;;;5087849;28;43955;-68
2022/06/06 06:58:52;;;;;;;1.80;1.80;;;21.70;69.90;;;;;;5088510;28;44039;-68
2022/06/06 07:01:24;;;;;;;1.70;1.70;;;21.60;69.90;;;;;;5089267;28;43360;-68
2022/06/06 07:09:47;;;;;;;1.70;1.70;;;21.60;70.90;;;;;;5106105;27;43823;-69
2022/06/06 07:12:24;;;;;;;1.90;1.90;;;21.60;70.20;;;;;;5108704;27;43943;-69
2022/06/06 07:15:08;;;;;;;1.70;1.70;;;21.60;70.30;;;;;;5101679;27;43962;-68
2022/06/06 07:17:42;;;;;;;1.80;1.80;;;21.60;70.40;;;;;;5108096;27;44030;-69
2022/06/06 07:20:11;;;;;;;1.87;1.87;;;21.50;70.30;;;;;;5099047;27;44069;-69
2022/06/06 07:25:38;;;;;;;1.93;1.93;;;21.50;70.40;;;;;;5083152;27;44001;-69
2022/06/06 07:28:07;;;;;;;1.80;1.80;;;21.60;71.00;;;;;;5088668;27;43510;-69
2022/06/06 07:30:38;;;;;;;1.83;1.83;;;21.70;70.60;;;;;;5069957;27;43431;-69
2022/06/06 07:33:19;;;;;;;1.77;1.77;;;21.90;70.20;;;;;;5088609;27;43379;-68
2022/06/06 07:35:51;;;;;;;1.80;1.80;;;22.10;69.70;;;;;;5072472;27;46148;-68
2022/06/06 07:38:25;;;;;;;7.10;1.70;;;22.20;69.00;;;;;;5097638;27;43442;-68
2022/06/06 07:41:06;;;;;;;1.70;1.70;;;22.40;68.60;;;;;;5087683;27;43418;-69
2022/06/06 07:43:57;;;;;;;1.60;1.60;;;22.50;68.00;;;;;;5088061;27;44000;-68
2022/06/06 07:46:38;;;;;;;2.00;1.90;;;22.70;67.50;;;;;;5088017;27;43999;-69
2022/06/06 07:49:09;;;;;;;1.57;1.57;;;22.80;67.20;;;;;;5087348;27;43462;-68
2022/06/06 07:51:41;;;;;;;1.73;1.73;;;22.90;66.90;;;;;;5106105;27;43917;-69
2022/06/06 07:54:27;;;;;;;1.90;1.90;;;22.90;66.70;;;;;;5089386;27;43973;-68
2022/06/06 07:56:59;;;;;;;1.77;1.77;;;22.80;67.00;;;;;;5087302;27;44848;-69
2022/06/06 07:59:37;;;;;;;1.70;1.70;;;22.60;67.40;;;;;;5087622;27;44111;-69
2022/06/06 08:02:15;;;;;;;1.73;1.73;;;22.40;67.70;;;;;;5090989;27;43925;-68
2022/06/06 08:04:47;;;;;;;1.50;1.50;;;22.20;68.10;;;;;;5089194;27;43884;-69
2022/06/06 08:07:20;;;;;;;1.83;1.83;;;22.10;68.50;;;;;;5102304;27;44875;-68
2022/06/06 08:09:56;;;;;;;1.80;1.80;;;22.00;69.60;;;;;;5087653;27;44049;-68
2022/06/06 08:12:42;;;;;;;1.80;1.80;;;21.90;69.30;;;;;;5087587;27;43412;-69
2022/06/06 08:15:15;;;;;;;1.70;1.70;;;21.80;69.50;;;;;;5107821;27;43893;-68
2022/06/06 08:17:51;;;;;;;1.97;1.87;;;21.80;69.80;;;;;;5107259;27;43751;-69
2022/06/06 08:20:21;;;;;;;1.90;1.90;;;21.70;70.00;;;;;;5088485;27;44010;-69
2022/06/06 08:22:50;;;;;;;1.80;1.80;;;21.70;70.00;;;;;;5077349;28;44072;-68
2022/06/06 08:25:20;;;;;;;1.73;1.67;;;21.60;70.10;;;;;;5087675;27;44031;-67
2022/06/06 08:27:50;;;;;;;1.90;1.90;;;21.60;70.20;;;;;;5086932;27;43960;-69
2022/06/06 08:30:19;;;;;;;1.83;1.83;;;21.60;70.30;;;;;;5068631;28;45063;-69
2022/06/06 08:32:48;;;;;;;1.80;1.70;;;21.50;70.30;;;;;;5087590;27;43764;-69
2022/06/06 08:35:16;;;;;;;2.10;1.90;;;21.50;70.30;;;;;;5095539;27;43916;-68
2022/06/06 08:37:57;;;;;;;1.80;1.70;;;21.50;70.40;;;;;;5110454;27;43608;-68
2022/06/06 08:40:47;;;;;;;1.80;1.80;;;21.50;70.40;;;;;;5079287;27;44622;-69
2022/06/06 08:43:18;;;;;;;1.80;1.80;;;21.50;70.40;;;;;;5110658;27;43898;-69
2022/06/06 08:45:51;;;;;;;1.70;1.70;;;21.50;70.50;;;;;;5111033;27;43855;-68
2022/06/06 08:48:39;;;;;;;2.00;2.00;;;21.50;70.70;;;;;;5110280;27;44034;-70
2022/06/06 08:51:24;;;;;;;1.90;1.90;;;21.50;71.10;;;;;;5110411;27;43407;-68
2022/06/06 08:54:09;;;;;;;1.80;1.80;;;21.70;70.70;;;;;;5100741;27;44010;-69
2022/06/06 08:56:51;;;;;;;1.60;1.60;;;21.90;70.20;;;;;;5079054;28;43847;-69
2022/06/06 08:59:46;;;;;;;1.67;1.67;;;22.10;69.60;;;;;;5097760;27;44969;-69
2022/06/06 09:02:35;;;;;;;1.80;1.70;;;22.20;68.90;;;;;;5110200;27;43943;-69
2022/06/06 09:05:42;;;;;;;1.70;1.70;;;22.40;68.40;;;;;;5110384;27;43931;-69
2022/06/06 09:08:49;;;;;;;1.80;1.80;;;22.60;67.90;;;;;;5070538;27;43863;-69
2022/06/06 09:11:41;;;;;;;1.77;1.60;;;22.70;67.40;;;;;;5072366;27;43942;-69
2022/06/06 09:14:33;;;;;;;1.70;1.70;;;22.80;66.90;;;;;;5110073;27;43975;-69
2022/06/06 09:17:16;;;;;;;2.07;1.97;;;22.90;66.70;;;;;;5110128;27;43993;-68
2022/06/06 09:20:05;;;;;;;1.70;1.70;;;22.80;67.00;;;;;;5090621;27;44369;-68
2022/06/06 09:22:48;;;;;;;1.60;1.60;;;22.60;67.50;;;;;;5090422;27;43968;-68
2022/06/06 09:25:33;;;;;;;1.90;1.90;;;22.30;67.80;;;;;;5090042;27;43979;-69
2022/06/06 09:28:35;;;;;;;1.63;1.63;;;22.10;68.20;;;;;;5097458;27;43907;-69
2022/06/06 09:31:39;;;;;;;1.70;1.70;;;22.00;68.80;;;;;;5092207;27;43341;-70
2022/06/06 09:34:57;;;;;;;1.87;1.77;;;21.90;69.30;;;;;;5106224;27;43839;-68
2022/06/06 09:37:37;;;;;;;1.63;1.63;;;21.70;69.50;;;;;;5109703;27;43997;-68
2022/06/06 09:40:17;;;;;;;1.83;1.83;;;21.70;69.80;;;;;;5109578;27;43963;-68
2022/06/06 09:43:08;;;;;;;1.60;1.60;;;21.60;69.90;;;;;;5090441;27;43403;-69
2022/06/06 09:45:44;;;;;;;1.80;1.80;;;21.60;70.10;;;;;;5103818;27;43845;-69
2022/06/06 09:48:57;;;;;;;1.60;1.60;;;21.50;70.80;;;;;;5077507;27;44892;-70
2022/06/06 09:51:56;;;;;;;1.70;1.70;;;21.50;70.20;;;;;;5052467;27;44122;-69
2022/06/06 10:01:01;;;;;;;1.80;1.80;;;21.50;70.40;;;;;;5103245;27;43864;-68
2022/06/06 10:04:14;;;;;;;1.67;1.67;;;21.50;70.40;;;;;;5109210;27;43933;-69
2022/06/06 10:07:13;;;;;;;1.50;1.50;;;21.40;70.40;;;;;;5091081;27;43782;-68
2022/06/06 10:10:06;;;;;;;1.60;1.60;;;21.50;70.50;;;;;;5109211;27;43986;-68
2022/06/06 10:12:58;;;;;;;1.50;1.50;;;21.40;70.80;;;;;;5109270;27;44019;-68
2022/06/06 10:15:37;;;;;;;1.43;1.43;;;21.50;70.90;;;;;;5087037;27;44003;-69
2022/06/06 10:18:25;;;;;;;1.30;1.30;;;21.70;70.50;;;;;;5089824;27;43958;-68
2022/06/06 10:21:25;;;;;;;1.50;1.50;;;21.90;69.90;;;;;;5089425;27;43971;-68
2022/06/06 10:24:31;;;;;;;1.50;1.50;;;22.10;69.30;;;;;;5075462;27;43914;-69
2022/06/06 10:27:05;;;;;;;1.50;1.50;;;22.30;68.70;;;;;;5081737;27;43954;-68
2022/06/06 10:33:02;;;;;;;1.30;1.30;;;22.60;67.80;;;;;;5100014;27;43585;-69
2022/06/06 10:35:37;;;;;;;17.93;2.10;;;22.70;67.30;;;;;;5045260;28;43937;-69
2022/06/06 10:38:15;;;;;;;25.00;2.63;;;22.80;65.90;;;;;;5108241;27;43359;-69
2022/06/06 10:41:04;;;;;;;14.10;2.20;;;22.80;64.10;;;;;;5109208;27;43885;-69
2022/06/06 10:43:51;;;;;;;6.97;2.20;;;22.70;62.50;;;;;;5088713;28;44966;-68
2022/06/06 10:46:24;;;;;;;6.60;2.13;;;22.40;63.70;;;;;;5074194;27;45012;-68
2022/06/06 10:49:20;;;;;;;2.03;1.70;;;22.20;65.30;;;;;;5070166;27;43424;-69
2022/06/06 10:52:15;;;;;;;6.53;1.90;;;22.10;66.10;;;;;;5072769;27;43909;-68
2022/06/06 10:55:10;;;;;;;6.93;2.30;;;21.90;66.60;;;;;;5087380;27;45436;-69
2022/06/06 10:58:14;;;;;;;5.47;2.00;;;21.80;67.20;;;;;;5107278;27;43911;-69
2022/06/06 11:01:12;;;;;;;2.40;2.00;;;21.70;67.70;;;;;;5108630;27;44002;-69
2022/06/06 11:04:01;;;;;;;5.43;1.90;;;21.60;68.00;;;;;;5106335;27;44073;-68
2022/06/06 11:07:08;;;;;;;2.40;2.20;;;21.50;68.30;;;;;;5108193;27;43975;-69
2022/06/06 11:10:04;;;;;;;2.40;2.00;;;21.50;68.50;;;;;;5070192;28;44892;-68
2022/06/06 11:13:18;;;;;;;3.53;2.30;;;21.50;68.80;;;;;;5086027;27;44249;-69
2022/06/06 11:15:56;;;;;;;7.17;1.97;;;21.50;68.90;;;;;;5024314;28;43886;-68
2022/06/06 11:19:04;;;;;;;3.03;2.33;;;21.40;68.90;;;;;;4988984;28;45435;-69
2022/06/06 11:21:48;;;;;;;2.67;2.40;;;21.40;69.00;;;;;;5062357;27;44865;-68
2022/06/06 11:24:20;;;;;;;2.20;1.97;;;21.40;69.10;;;;;;5108160;27;44049;-68
2022/06/06 11:27:26;;;;;;;2.00;1.90;;;21.40;69.20;;;;;;5108590;27;43992;-69
2022/06/06 11:30:23;;;;;;;1.83;1.80;;;21.40;69.30;;;;;;5039281;28;44025;-69
2022/06/06 11:33:28;;;;;;;2.10;2.00;;;21.40;69.30;;;;;;5072714;27;44044;-69
2022/06/06 11:36:33;;;;;;;2.30;2.00;;;21.40;69.70;;;;;;5090555;27;44065;-68
2022/06/06 11:39:15;;;;;;;2.10;1.90;;;21.50;69.80;;;;;;5088977;27;43402;-69
2022/06/06 11:42:00;;;;;;;2.00;1.90;;;21.70;69.20;;;;;;5069646;28;47328;-68
2022/06/06 11:44:49;;;;;;;3.10;1.90;;;22.00;68.70;;;;;;5101735;27;44002;-68
2022/06/06 11:47:35;;;;;;;2.17;2.00;;;22.10;68.10;;;;;;5107866;27;43972;-70
2022/06/06 11:50:42;;;;;;;3.83;1.80;;;22.30;67.70;;;;;;5083174;27;43943;-69
2022/06/06 11:53:59;;;;;;;2.47;1.80;;;22.40;67.20;;;;;;5101148;27;43983;-68
2022/06/06 11:56:54;;;;;;;2.40;2.13;;;22.60;66.70;;;;;;5014474;28;44224;-68
2022/06/06 11:59:58;;;;;;;2.63;2.23;;;22.70;66.50;;;;;;5067605;28;43983;-68
2022/06/06 12:02:41;;;;;;;3.27;2.37;;;22.70;66.00;;;;;;5067476;28;43956;-69
2022/06/06 12:05:30;;;;;;;1.73;1.73;;;22.60;66.40;;;;;;5068874;28;43603;-69
2022/06/06 12:08:19;;;;;;;1.93;1.83;;;22.40;66.50;;;;;;5081847;28;43908;-68
2022/06/06 12:11:08;;;;;;;2.23;1.70;;;22.20;67.00;;;;;;5067402;28;43304;-69
2022/06/06 12:13:48;;;;;;;1.70;1.60;;;22.00;67.50;;;;;;5067768;28;43354;-68
2022/06/06 12:16:30;;;;;;;1.87;1.77;;;21.90;68.00;;;;;;5067367;28;43980;-68
2022/06/06 12:19:24;;;;;;;1.77;1.77;;;21.80;68.40;;;;;;5067143;28;44067;-68
2022/06/06 12:22:34;;;;;;;1.50;1.50;;;21.70;68.70;;;;;;5067639;28;44191;-68
2022/06/06 12:25:49;;;;;;;1.90;1.80;;;21.60;68.90;;;;;;5036803;28;44136;-69
2022/06/06 12:28:39;;;;;;;2.00;1.90;;;21.50;69.10;;;;;;5015783;28;44054;-70
2022/06/06 12:31:17;;;;;;;1.50;1.50;;;21.50;69.20;;;;;;5067233;28;44051;-69
2022/06/06 12:33:48;;;;;;;1.80;1.80;;;21.50;69.40;;;;;;5067414;28;43484;-69
2022/06/06 12:36:18;;;;;;;2.00;1.70;;;21.50;69.50;;;;;;5077065;28;43904;-69
2022/06/06 12:38:53;;;;;;;1.73;1.63;;;21.40;69.50;;;;;;5086390;28;44019;-69
2022/06/06 12:41:43;;;;;;;1.73;1.67;;;21.40;69.60;;;;;;5084493;28;44003;-69
2022/06/06 12:44:29;;;;;;;1.50;1.50;;;21.40;69.60;;;;;;5086371;28;43347;-69
2022/06/06 12:47:07;;;;;;;1.70;1.60;;;21.50;69.70;;;;;;5086820;28;43347;-69
2022/06/06 12:49:53;;;;;;;1.70;1.70;;;21.50;69.80;;;;;;5085847;28;43917;-69
2022/06/06 12:52:44;;;;;;;1.50;1.50;;;21.40;69.70;;;;;;5066940;28;43974;-69
2022/06/06 12:55:32;;;;;;;1.60;1.60;;;21.50;70.20;;;;;;5066727;28;43989;-69
2022/06/06 12:58:07;;;;;;;1.67;1.60;;;21.60;69.90;;;;;;5064495;28;43963;-68
2022/06/06 13:03:26;;;;;;;1.63;1.63;;;22.00;68.90;;;;;;5084523;28;44816;-69
2022/06/06 13:05:58;;;;;;;1.63;1.53;;;22.10;68.30;;;;;;5086360;27;43904;-69
2022/06/06 13:08:31;;;;;;;1.60;1.43;;;22.30;67.80;;;;;;5087428;27;43950;-69
2022/06/06 13:11:24;;;;;;;3.47;1.73;;;22.40;67.40;;;;;;5086722;27;44505;-68
2022/06/06 13:14:02;;;;;;;1.80;1.70;;;22.50;67.00;;;;;;5086945;27;43408;-69
2022/06/06 13:16:46;;;;;;;4.70;2.63;;;22.70;66.70;;;;;;5086810;27;43888;-68
2022/06/06 13:19:23;;;;;;;5.73;3.07;;;22.70;66.20;;;;;;5068912;27;44085;-68
2022/06/06 13:21:59;;;;;;;5.63;3.07;;;22.80;66.00;;;;;;5071190;27;46588;-69
2022/06/06 13:24:49;;;;;;;6.87;3.23;;;22.80;65.80;;;;;;5103543;27;44155;-68
2022/06/06 13:27:19;;;;;;;4.77;2.93;;;22.70;65.90;;;;;;5090371;27;43963;-68
2022/06/06 13:29:47;;;;;;;4.60;2.50;;;22.60;66.40;;;;;;5085900;27;43969;-69
2022/06/06 13:32:27;;;;;;;2.30;2.10;;;22.30;66.40;;;;;;5090130;27;44034;-68
2022/06/06 13:35:01;;;;;;;4.63;2.40;;;22.10;66.60;;;;;;5091705;27;43939;-69
2022/06/06 13:37:36;;;;;;;4.07;2.20;;;22.00;67.20;;;;;;5084395;27;43966;-68
2022/06/06 13:40:23;;;;;;;3.10;2.07;;;21.90;68.00;;;;;;5110517;27;43973;-68
2022/06/06 13:43:13;;;;;;;2.20;2.10;;;21.80;68.10;;;;;;5109522;27;44171;-69
2022/06/06 13:45:46;;;;;;;2.47;2.27;;;21.70;68.70;;;;;;5109553;27;44154;-68
2022/06/06 13:48:37;;;;;;;2.37;2.17;;;21.60;68.70;;;;;;5109490;27;44012;-67
2022/06/06 13:51:12;;;;;;;3.43;1.90;;;21.60;69.00;;;;;;5090243;28;43443;-69
2022/06/06 13:53:49;;;;;;;3.63;1.97;;;21.50;69.10;;;;;;5089665;27;43899;-69
2022/06/06 13:56:25;;;;;;;2.33;2.13;;;21.50;69.20;;;;;;5072639;27;45508;-68
2022/06/06 13:58:57;;;;;;;1.90;1.80;;;21.50;69.00;;;;;;5109440;27;43900;-69
2022/06/06 14:01:35;;;;;;;4.07;2.13;;;21.50;69.10;;;;;;5110001;27;43804;-67
2022/06/06 14:04:15;;;;;;;2.27;2.13;;;21.50;69.10;;;;;;5109303;27;43933;-68
2022/06/06 14:06:53;;;;;;;3.83;2.03;;;21.50;69.50;;;;;;5088987;28;44022;-67
2022/06/06 14:09:35;;;;;;;2.80;1.77;;;21.50;68.90;;;;;;5098294;27;43304;-68
2022/06/06 14:12:10;;;;;;;2.00;1.87;;;21.50;69.50;;;;;;5094808;27;44023;-68
2022/06/06 14:14:39;;;;;;;3.23;1.90;;;21.50;69.60;;;;;;5093437;27;44729;-69
2022/06/06 14:17:14;;;;;;;2.50;1.97;;;21.50;70.00;;;;;;5109157;27;44132;-69